createdAt,value
2022-12-18T00:02:16.175Z,70.88
2022-12-18T00:04:43.031Z,70.50
2022-12-18T00:07:10.206Z,67.03
2022-12-18T00:09:39.468Z,67.07
2022-12-18T00:14:45.535Z,63.35
2022-12-18T00:17:12.553Z,63.22
2022-12-18T00:19:39.332Z,63.40
2022-12-18T00:22:07.462Z,65.88
2022-12-18T00:24:34.287Z,62.65
2022-12-18T00:27:01.024Z,66.45
2022-12-18T00:29:27.952Z,62.70
2022-12-18T00:31:54.949Z,63.63
2022-12-18T00:34:21.765Z,56.60
2022-12-18T00:36:49.255Z,67.25
2022-12-18T00:39:16.086Z,62.50
2022-12-18T00:42:01.796Z,63.65
2022-12-18T00:44:28.595Z,63.78
2022-12-18T00:46:55.350Z,63.40
2022-12-18T00:49:22.474Z,63.00
2022-12-18T00:51:49.625Z,65.30
2022-12-18T00:54:17.573Z,70.97
2022-12-18T00:56:49.011Z,61.53
2022-12-18T00:59:17.911Z,67.25
2022-12-18T01:01:45.943Z,63.38
2022-12-18T01:04:13.235Z,59.30
2022-12-18T01:06:40.015Z,65.40
2022-12-18T01:09:07.024Z,69.28
2022-12-18T01:11:33.974Z,60.05
2022-12-18T01:14:00.755Z,64.47
2022-12-18T01:16:28.056Z,59.28
2022-12-18T01:18:56.060Z,64.55
2022-12-18T01:21:24.805Z,64.50
2022-12-18T01:23:56.377Z,66.63
2022-12-18T01:26:23.677Z,59.55
2022-12-18T01:28:50.503Z,63.28
2022-12-18T01:31:26.566Z,65.93
2022-12-18T01:33:54.278Z,63.95
2022-12-18T01:36:26.484Z,63.53
2022-12-18T01:38:54.505Z,60.63
2022-12-18T01:41:25.005Z,60.05
2022-12-18T01:43:58.107Z,61.28
2022-12-18T01:46:28.786Z,57.15
2022-12-18T01:49:00.389Z,61.33
2022-12-18T01:51:28.812Z,56.78
2022-12-18T01:53:55.815Z,61.80
2022-12-18T01:56:23.288Z,59.65
2022-12-18T01:59:07.149Z,55.80
2022-12-18T02:01:34.623Z,53.65
2022-12-18T02:04:22.113Z,57.95
2022-12-18T02:06:54.753Z,59.10
2022-12-18T02:09:30.414Z,54.88
2022-12-18T02:12:11.755Z,52.30
2022-12-18T02:14:56.614Z,55.40
2022-12-18T02:17:31.574Z,53.67
2022-12-18T02:20:01.061Z,53.50
2022-12-18T02:22:47.254Z,54.55
2022-12-18T02:25:21.395Z,54.45
2022-12-18T02:27:50.340Z,57.13
2022-12-18T02:30:18.482Z,57.88
2022-12-18T02:32:51.133Z,56.35
2022-12-18T02:35:25.073Z,53.28
2022-12-18T02:37:59.177Z,56.30
2022-12-18T02:40:29.432Z,57.83
2022-12-18T02:42:56.380Z,54.67
2022-12-18T02:45:23.196Z,57.47
2022-12-18T02:47:51.684Z,57.70
2022-12-18T02:50:27.495Z,60.13
2022-12-18T02:52:54.249Z,57.75
2022-12-18T02:55:33.783Z,56.10
2022-12-18T02:58:19.512Z,57.30
2022-12-18T03:01:08.545Z,63.92
2022-12-18T03:03:47.852Z,55.92
2022-12-18T03:06:33.172Z,56.95
2022-12-18T03:09:05.824Z,55.42
2022-12-18T03:11:58.024Z,59.50
2022-12-18T03:14:27.141Z,55.05
2022-12-18T03:17:00.039Z,55.13
2022-12-18T03:19:30.644Z,55.53
2022-12-18T03:21:59.988Z,58.28
2022-12-18T03:24:31.063Z,51.25
2022-12-18T03:27:03.778Z,56.05
2022-12-18T03:29:38.927Z,66.28
2022-12-18T03:32:31.912Z,63.80
2022-12-18T03:35:03.883Z,55.58
2022-12-18T03:37:34.272Z,52.15
2022-12-18T03:40:01.115Z,49.95
2022-12-18T03:42:41.462Z,54.08
2022-12-18T03:45:37.699Z,53.53
2022-12-18T03:48:09.962Z,54.25
2022-12-18T03:50:55.113Z,55.95
2022-12-18T03:53:34.928Z,53.67
2022-12-18T03:56:03.223Z,49.85
2022-12-18T03:58:33.028Z,50.22
2022-12-18T04:01:03.402Z,52.85
2022-12-18T04:03:32.974Z,52.70
2022-12-18T04:06:02.152Z,50.00
2022-12-18T04:08:30.152Z,51.78
2022-12-18T04:10:57.013Z,51.50
2022-12-18T04:13:30.860Z,53.08
2022-12-18T04:15:57.957Z,53.00
2022-12-18T04:18:24.881Z,53.20
2022-12-18T04:20:51.683Z,51.95
2022-12-18T04:23:18.513Z,52.58
2022-12-18T04:25:45.293Z,51.10
2022-12-18T04:28:12.113Z,52.22
2022-12-18T04:30:39.297Z,51.47
2022-12-18T04:33:12.880Z,48.53
2022-12-18T04:35:40.845Z,53.50
2022-12-18T04:38:09.516Z,50.38
2022-12-18T04:40:37.201Z,56.72
2022-12-18T04:43:05.001Z,56.40
2022-12-18T04:45:32.972Z,54.78
2022-12-18T04:48:00.688Z,56.65
2022-12-18T04:50:28.043Z,55.25
2022-12-18T04:52:54.903Z,56.55
2022-12-18T04:55:21.911Z,53.65
2022-12-18T04:57:48.772Z,53.40
2022-12-18T05:00:15.893Z,55.72
2022-12-18T05:02:42.842Z,55.03
2022-12-18T05:05:10.293Z,53.38
2022-12-18T05:07:37.115Z,52.58
2022-12-18T05:10:08.970Z,54.90
2022-12-18T05:12:57.315Z,54.45
2022-12-18T05:15:24.129Z,58.42
2022-12-18T05:17:50.904Z,54.75
2022-12-18T05:20:19.294Z,54.67
2022-12-18T05:22:46.233Z,55.08
2022-12-18T05:25:13.045Z,51.13
2022-12-18T05:27:39.960Z,56.25
2022-12-18T05:30:07.413Z,57.63
2022-12-18T05:32:34.273Z,58.75
2022-12-18T05:35:01.112Z,61.22
2022-12-18T05:37:27.933Z,56.22
2022-12-18T05:39:54.748Z,58.60
2022-12-18T05:42:21.562Z,62.60
2022-12-18T05:44:48.602Z,63.63
2022-12-18T05:47:15.433Z,60.35
2022-12-18T05:49:42.333Z,58.70
2022-12-18T05:52:09.252Z,61.90
2022-12-18T05:54:36.304Z,57.28
2022-12-18T05:57:03.221Z,58.35
2022-12-18T05:59:30.024Z,57.88
2022-12-18T06:01:57.094Z,60.22
2022-12-18T06:04:23.962Z,58.10
2022-12-18T06:06:50.713Z,60.63
2022-12-18T06:09:17.582Z,58.33
2022-12-18T06:11:44.464Z,60.45
2022-12-18T06:14:11.267Z,53.88
2022-12-18T06:16:38.195Z,61.30
2022-12-18T06:19:06.691Z,58.47
2022-12-18T06:21:33.768Z,58.55
2022-12-18T06:24:01.300Z,71.53
2022-12-18T06:26:28.745Z,64.35
2022-12-18T06:28:55.902Z,62.45
2022-12-18T06:31:22.798Z,63.58
2022-12-18T06:33:49.668Z,61.25
2022-12-18T06:36:17.727Z,59.13
2022-12-18T06:38:45.402Z,59.75
2022-12-18T06:41:22.638Z,60.17
2022-12-18T06:43:49.682Z,65.65
2022-12-18T06:46:16.566Z,65.65
2022-12-18T06:48:43.388Z,70.05
2022-12-18T06:51:10.214Z,74.05
2022-12-18T06:53:37.215Z,69.88
2022-12-18T06:56:09.914Z,67.10
2022-12-18T06:58:38.041Z,62.80
2022-12-18T07:01:07.284Z,74.35
2022-12-18T07:03:34.122Z,59.47
2022-12-18T07:06:01.014Z,59.33
2022-12-18T07:08:29.586Z,55.50
2022-12-18T07:10:56.647Z,51.83
2022-12-18T07:13:23.912Z,56.95
2022-12-18T07:15:50.841Z,62.63
2022-12-18T07:18:17.652Z,63.40
2022-12-18T07:20:45.352Z,68.25
2022-12-18T07:23:13.105Z,57.65
2022-12-18T07:25:40.598Z,59.95
2022-12-18T07:28:08.263Z,61.50
2022-12-18T07:30:39.495Z,59.75
2022-12-18T07:33:06.363Z,54.13
2022-12-18T07:35:39.059Z,59.78
2022-12-18T07:38:06.122Z,58.42
2022-12-18T07:40:32.912Z,54.20
2022-12-18T07:42:59.762Z,57.97
2022-12-18T07:45:26.643Z,55.42
2022-12-18T07:47:53.463Z,53.35
2022-12-18T07:50:20.295Z,56.50
2022-12-18T07:52:47.713Z,56.72
2022-12-18T07:55:14.633Z,52.35
2022-12-18T07:57:50.769Z,53.13
2022-12-18T08:00:18.994Z,57.78
2022-12-18T08:02:46.081Z,56.55
2022-12-18T08:05:13.095Z,58.95
2022-12-18T08:07:39.975Z,61.38
2022-12-18T08:10:07.703Z,53.40
2022-12-18T08:12:34.504Z,52.72
2022-12-18T08:15:01.951Z,55.42
2022-12-18T08:17:28.873Z,53.20
2022-12-18T08:19:55.635Z,54.47
2022-12-18T08:22:22.433Z,57.97
2022-12-18T08:24:49.232Z,53.45
2022-12-18T08:27:31.483Z,55.92
2022-12-18T08:29:58.902Z,59.03
2022-12-18T08:32:27.604Z,55.08
2022-12-18T08:34:54.865Z,52.88
2022-12-18T08:37:21.719Z,50.67
2022-12-18T08:39:48.508Z,52.80
2022-12-18T08:42:33.756Z,55.53
2022-12-18T08:45:00.615Z,50.35
2022-12-18T08:47:27.413Z,50.88
2022-12-18T08:49:54.315Z,50.55
2022-12-18T08:52:21.184Z,49.53
2022-12-18T08:54:48.024Z,53.63
2022-12-18T08:57:14.894Z,51.97
2022-12-18T08:59:41.674Z,48.90
2022-12-18T09:02:11.845Z,49.45
2022-12-18T09:04:39.008Z,48.88
2022-12-18T09:07:05.774Z,47.80
2022-12-18T09:09:32.644Z,45.50
2022-12-18T09:11:59.422Z,46.10
2022-12-18T09:14:26.174Z,43.80
2022-12-18T09:16:53.127Z,44.03
2022-12-18T09:19:19.912Z,43.72
2022-12-18T09:21:48.470Z,40.20
2022-12-18T09:24:16.522Z,46.22
2022-12-18T09:26:46.866Z,45.60
2022-12-18T09:29:15.634Z,37.63
2022-12-18T09:31:43.595Z,38.40
2022-12-18T09:34:10.390Z,37.95
2022-12-18T09:36:37.294Z,38.25
2022-12-18T09:39:08.251Z,36.33
2022-12-18T09:41:38.486Z,36.78
2022-12-18T09:44:24.562Z,44.20
2022-12-18T09:46:58.542Z,39.90
2022-12-18T09:49:30.775Z,38.25
2022-12-18T09:52:05.183Z,43.10
2022-12-18T09:54:45.450Z,52.63
2022-12-18T09:57:17.635Z,56.30
2022-12-18T09:59:51.795Z,57.63
2022-12-18T10:02:26.849Z,51.63
2022-12-18T10:05:18.307Z,53.40
2022-12-18T10:08:30.993Z,48.42
2022-12-18T10:11:05.075Z,51.95
2022-12-18T10:13:48.514Z,57.72
2022-12-18T10:16:37.083Z,48.95
2022-12-18T10:19:29.105Z,47.95
2022-12-18T10:22:13.813Z,51.30
2022-12-18T10:24:55.174Z,51.70
2022-12-18T10:27:28.003Z,48.78
2022-12-18T10:29:55.152Z,56.20
2022-12-18T10:32:26.002Z,54.92
2022-12-18T10:35:00.104Z,55.15
2022-12-18T10:37:30.048Z,56.75
2022-12-18T10:40:21.936Z,58.50
2022-12-18T10:43:05.641Z,57.30
2022-12-18T10:45:32.603Z,55.85
2022-12-18T10:48:00.102Z,60.92
2022-12-18T10:51:08.748Z,66.15
2022-12-18T10:53:31.285Z,62.67
2022-12-18T10:56:04.701Z,65.10
2022-12-18T10:58:35.734Z,60.38
2022-12-18T11:01:04.714Z,66.60
2022-12-18T11:03:39.323Z,64.03
2022-12-18T11:06:15.303Z,62.30
2022-12-18T11:08:45.099Z,72.05
2022-12-18T11:11:23.459Z,69.13
2022-12-18T11:14:05.326Z,69.22
2022-12-18T11:17:03.208Z,63.88
2022-12-18T11:19:38.814Z,68.13
2022-12-18T11:22:21.992Z,72.75
2022-12-18T11:25:30.018Z,68.70
2022-12-18T11:27:55.302Z,69.70
2022-12-18T11:30:36.453Z,67.68
2022-12-18T11:33:20.462Z,71.00
2022-12-18T11:35:54.832Z,64.80
2022-12-18T11:38:33.374Z,63.90
2022-12-18T11:41:18.722Z,66.43
2022-12-18T11:43:54.152Z,59.78
2022-12-18T11:46:43.097Z,56.75
2022-12-18T11:49:26.792Z,58.65
2022-12-18T11:52:04.721Z,55.20
2022-12-18T11:54:31.593Z,59.63
2022-12-18T11:57:30.589Z,59.80
2022-12-18T12:00:06.103Z,49.45
2022-12-18T12:03:03.492Z,50.55
2022-12-18T12:05:46.822Z,56.38
2022-12-18T12:08:32.939Z,46.47
2022-12-18T12:11:20.590Z,58.28
2022-12-18T12:14:08.561Z,48.63
2022-12-18T12:16:56.441Z,54.55
2022-12-18T12:19:47.241Z,49.83
2022-12-18T12:22:30.523Z,59.50
2022-12-18T12:25:15.504Z,62.75
2022-12-18T12:28:03.993Z,62.80
2022-12-18T12:31:01.486Z,52.88
2022-12-18T12:33:48.324Z,55.65
2022-12-18T12:36:38.233Z,59.95
2022-12-18T12:39:14.912Z,61.95
2022-12-18T12:42:04.882Z,59.53
2022-12-18T12:44:42.202Z,62.60
2022-12-18T12:47:20.442Z,61.35
2022-12-18T12:49:51.585Z,62.63
2022-12-18T12:52:38.801Z,56.22
2022-12-18T12:57:50.083Z,61.15
2022-12-18T13:00:25.197Z,56.97
2022-12-18T13:03:35.206Z,61.50
2022-12-18T13:06:11.046Z,59.33
2022-12-18T13:09:00.164Z,57.28
2022-12-18T13:12:00.350Z,55.72
2022-12-18T13:14:35.012Z,59.28
2022-12-18T13:17:30.437Z,58.38
2022-12-18T13:20:17.165Z,64.65
2022-12-18T13:22:49.475Z,68.38
2022-12-18T13:25:37.366Z,68.90
2022-12-18T13:28:13.724Z,58.42
2022-12-18T13:30:57.698Z,67.07
2022-12-18T13:33:25.041Z,56.03
2022-12-18T13:35:51.888Z,57.80
2022-12-18T13:38:38.174Z,58.33
2022-12-18T13:41:20.063Z,67.23
2022-12-18T13:43:49.483Z,56.95
2022-12-18T13:46:44.922Z,57.55
2022-12-18T13:49:14.497Z,59.08
2022-12-18T13:51:50.624Z,63.92
2022-12-18T13:54:37.266Z,73.18
2022-12-18T13:57:07.543Z,70.57
2022-12-18T13:59:38.153Z,63.95
2022-12-18T14:02:16.880Z,66.53
2022-12-18T14:04:47.663Z,66.07
2022-12-18T14:07:17.366Z,67.03
2022-12-18T14:09:52.278Z,62.03
2022-12-18T14:12:42.717Z,65.88
2022-12-18T14:15:32.819Z,78.15
2022-12-18T14:18:03.108Z,77.15
2022-12-18T14:20:33.693Z,73.00
2022-12-18T14:23:01.474Z,62.30
2022-12-18T14:25:30.941Z,72.00
2022-12-18T14:28:09.879Z,74.05
2022-12-18T14:30:39.439Z,70.55
2022-12-18T14:33:09.196Z,77.45
2022-12-18T14:35:39.224Z,70.78
2022-12-18T14:38:22.386Z,83.90
2022-12-18T14:40:56.094Z,77.38
2022-12-18T14:43:23.592Z,70.75
2022-12-18T14:45:51.576Z,70.78
2022-12-18T14:48:37.217Z,68.43
2022-12-18T14:51:24.512Z,69.22
2022-12-18T14:54:18.173Z,66.20
2022-12-18T14:56:52.293Z,67.40
2022-12-18T14:59:27.513Z,69.95
2022-12-18T15:02:04.077Z,67.35
2022-12-18T15:04:45.122Z,78.40
2022-12-18T15:07:23.308Z,71.03
2022-12-18T15:10:08.764Z,77.15
2022-12-18T15:12:50.052Z,71.43
2022-12-18T15:15:37.987Z,62.63
2022-12-18T15:18:24.496Z,60.30
2022-12-18T15:20:56.292Z,72.25
2022-12-18T15:23:45.019Z,66.50
2022-12-18T15:26:14.325Z,59.72
2022-12-18T15:29:04.367Z,58.30
2022-12-18T15:31:36.007Z,62.85
2022-12-18T15:34:21.825Z,63.63
2022-12-18T15:36:48.894Z,60.47
2022-12-18T15:39:15.776Z,64.13
2022-12-18T15:42:02.589Z,64.63
2022-12-18T15:44:30.744Z,84.35
2022-12-18T15:46:59.281Z,93.32
2022-12-18T15:49:26.460Z,105.72
2022-12-18T15:51:57.798Z,104.25
2022-12-18T15:54:43.290Z,98.97
2022-12-18T15:57:24.307Z,108.43
2022-12-18T15:59:53.995Z,95.75
2022-12-18T16:02:24.054Z,103.72
2022-12-18T16:04:55.233Z,110.07
2022-12-18T16:07:24.933Z,97.03
2022-12-18T16:09:53.134Z,99.95
2022-12-18T16:12:25.952Z,106.78
2022-12-18T16:14:52.868Z,102.72
2022-12-18T16:17:20.538Z,104.47
2022-12-18T16:19:47.420Z,113.72
2022-12-18T16:22:22.116Z,110.80
2022-12-18T16:24:49.468Z,110.82
2022-12-18T16:27:16.345Z,121.38
2022-12-18T16:29:43.862Z,98.20
2022-12-18T16:32:15.443Z,105.75
2022-12-18T16:34:43.311Z,113.45
2022-12-18T16:37:14.004Z,102.63
2022-12-18T16:39:42.788Z,110.68
2022-12-18T16:42:21.290Z,115.97
2022-12-18T16:44:50.126Z,114.68
2022-12-18T16:47:17.537Z,109.45
2022-12-18T16:49:51.901Z,102.72
2022-12-18T16:52:19.567Z,108.68
2022-12-18T16:54:47.947Z,109.22
2022-12-18T16:57:19.583Z,115.82
2022-12-18T16:59:48.382Z,124.70
2022-12-18T17:02:26.269Z,110.18
2022-12-18T17:04:58.267Z,102.05
2022-12-18T17:07:26.078Z,102.60
2022-12-18T17:09:54.376Z,102.30
2022-12-18T17:12:22.430Z,100.97
2022-12-18T17:14:51.446Z,74.78
2022-12-18T17:17:21.486Z,73.18
2022-12-18T17:19:50.988Z,74.07
2022-12-18T17:22:18.231Z,73.60
2022-12-18T17:24:46.114Z,78.15
2022-12-18T17:27:14.412Z,79.47
2022-12-18T17:29:47.393Z,78.05
2022-12-18T17:32:18.314Z,72.65
2022-12-18T17:34:46.301Z,73.60
2022-12-18T17:37:16.671Z,61.90
2022-12-18T17:39:43.659Z,60.47
2022-12-18T17:42:14.949Z,57.88
2022-12-18T17:44:43.102Z,64.68
2022-12-18T17:47:12.355Z,64.10
2022-12-18T17:49:42.122Z,61.90
2022-12-18T17:52:09.712Z,60.70
2022-12-18T17:54:44.516Z,62.15
2022-12-18T17:57:12.354Z,61.13
2022-12-18T17:59:39.358Z,66.22
2022-12-18T18:02:06.593Z,63.40
2022-12-18T18:04:33.957Z,65.70
2022-12-18T18:07:00.820Z,64.55
2022-12-18T18:09:27.782Z,60.03
2022-12-18T18:12:13.067Z,58.60
2022-12-18T18:14:40.415Z,63.03
2022-12-18T18:17:07.365Z,70.95
2022-12-18T18:19:34.443Z,69.78
2022-12-18T18:22:02.193Z,74.07
2022-12-18T18:24:30.205Z,79.45
2022-12-18T18:26:59.676Z,71.25
2022-12-18T18:29:29.039Z,67.78
2022-12-18T18:31:57.080Z,65.03
2022-12-18T18:34:26.792Z,69.38
2022-12-18T18:36:53.884Z,68.55
2022-12-18T18:39:21.279Z,75.00
2022-12-18T18:41:48.726Z,75.85
2022-12-18T18:44:17.375Z,71.85
2022-12-18T18:46:45.129Z,69.45
2022-12-18T18:49:13.831Z,69.97
2022-12-18T18:51:41.492Z,77.00
2022-12-18T18:54:09.172Z,74.60
2022-12-18T18:59:24.993Z,77.43
2022-12-18T19:01:59.206Z,84.68
2022-12-18T19:04:26.254Z,76.40
2022-12-18T19:06:53.115Z,72.95
2022-12-18T19:09:21.061Z,70.72
2022-12-18T19:12:06.454Z,75.68
2022-12-18T19:14:33.413Z,65.65
2022-12-18T19:17:00.512Z,62.67
2022-12-18T19:19:28.499Z,67.35
2022-12-18T19:21:55.452Z,69.60
2022-12-18T19:24:22.589Z,74.53
2022-12-18T19:26:49.661Z,68.22
2022-12-18T19:29:16.445Z,72.30
2022-12-18T19:31:43.413Z,70.20
2022-12-18T19:34:10.679Z,76.88
2022-12-18T19:36:40.198Z,72.72
2022-12-18T19:39:16.504Z,74.10
2022-12-18T19:41:44.313Z,80.00
2022-12-18T19:44:13.853Z,81.32
2022-12-18T19:46:42.526Z,72.13
2022-12-18T19:49:11.068Z,71.82
2022-12-18T19:51:38.360Z,72.72
2022-12-18T19:54:05.656Z,76.72
2022-12-18T19:56:35.149Z,68.50
2022-12-18T19:59:03.730Z,67.30
2022-12-18T20:01:30.755Z,66.97
2022-12-18T20:03:58.958Z,66.05
2022-12-18T20:06:48.822Z,72.43
2022-12-18T20:09:16.589Z,74.93
2022-12-18T20:11:43.485Z,75.90
2022-12-18T20:14:12.247Z,69.97
2022-12-18T20:16:39.468Z,74.97
2022-12-18T20:19:08.003Z,70.30
2022-12-18T20:21:36.138Z,74.05
2022-12-18T20:24:03.228Z,67.97
2022-12-18T20:26:30.135Z,69.63
2022-12-18T20:28:57.060Z,70.15
2022-12-18T20:31:24.570Z,65.88
2022-12-18T20:33:53.305Z,65.80
2022-12-18T20:36:25.840Z,72.18
2022-12-18T20:38:59.166Z,70.97
2022-12-18T20:41:33.507Z,69.40
2022-12-18T20:44:05.466Z,64.25
2022-12-18T20:46:34.414Z,60.63
2022-12-18T20:49:01.317Z,71.22
2022-12-18T20:51:29.293Z,66.97
2022-12-18T20:53:56.576Z,67.85
2022-12-18T20:56:23.685Z,61.95
2022-12-18T20:58:50.915Z,60.92
2022-12-18T21:01:24.050Z,64.88
2022-12-18T21:03:51.619Z,63.15
2022-12-18T21:06:20.514Z,60.13
2022-12-18T21:08:48.249Z,66.05
2022-12-18T21:11:34.897Z,63.53
2022-12-18T21:14:25.930Z,59.05
2022-12-18T21:16:56.971Z,65.88
2022-12-18T21:19:27.228Z,60.35
2022-12-18T21:21:55.859Z,66.65
2022-12-18T21:24:23.543Z,70.65
2022-12-18T21:26:50.653Z,64.65
2022-12-18T21:29:24.364Z,71.70
2022-12-18T21:31:54.001Z,65.85
2022-12-18T21:34:23.309Z,66.03
2022-12-18T21:36:50.324Z,65.35
2022-12-18T21:39:17.384Z,63.55
2022-12-18T21:42:06.020Z,67.55
2022-12-18T21:44:36.154Z,70.60
2022-12-18T21:47:22.070Z,71.50
2022-12-18T21:49:54.026Z,68.57
2022-12-18T21:52:31.378Z,68.15
2022-12-18T21:55:08.418Z,70.18
2022-12-18T21:57:37.458Z,72.30
2022-12-18T22:00:05.902Z,67.55
2022-12-18T22:02:32.830Z,66.10
2022-12-18T22:05:00.019Z,62.30
2022-12-18T22:07:29.100Z,59.72
2022-12-18T22:09:55.889Z,65.93
2022-12-18T22:12:43.186Z,64.85
2022-12-18T22:15:21.479Z,66.45
2022-12-18T22:17:54.137Z,66.32
2022-12-18T22:20:26.896Z,66.45
2022-12-18T22:22:53.753Z,65.93
2022-12-18T22:25:20.525Z,68.55
2022-12-18T22:28:07.309Z,62.92
2022-12-18T22:33:33.865Z,64.83
2022-12-18T22:36:07.796Z,63.65
2022-12-18T22:38:34.617Z,61.83
2022-12-18T22:41:01.498Z,67.97
2022-12-18T22:43:28.427Z,69.63
2022-12-18T22:45:55.491Z,68.57
2022-12-18T22:48:22.497Z,70.30
2022-12-18T22:50:50.166Z,61.08
2022-12-18T22:53:19.843Z,67.55
2022-12-18T22:55:46.657Z,68.75
2022-12-18T22:58:13.445Z,57.45
2022-12-18T23:00:40.822Z,69.05
2022-12-18T23:03:07.892Z,70.05
2022-12-18T23:05:34.744Z,68.57
2022-12-18T23:08:01.546Z,67.20
2022-12-18T23:10:28.627Z,68.88
2022-12-18T23:12:55.479Z,68.00
2022-12-18T23:15:27.657Z,66.80
2022-12-18T23:17:56.117Z,67.30
2022-12-18T23:20:23.017Z,71.90
2022-12-18T23:22:49.780Z,65.18
2022-12-18T23:25:16.705Z,76.10
2022-12-18T23:27:43.519Z,68.18
2022-12-18T23:30:10.957Z,68.65
2022-12-18T23:32:37.859Z,73.07
2022-12-18T23:35:05.217Z,67.90
2022-12-18T23:37:57.527Z,72.13
2022-12-18T23:40:20.778Z,71.47
2022-12-18T23:42:47.578Z,72.18
2022-12-18T23:45:18.115Z,74.15
2022-12-18T23:47:45.165Z,66.93
2022-12-18T23:50:14.757Z,86.50
2022-12-18T23:52:41.537Z,82.05
2022-12-18T23:55:08.788Z,80.63
2022-12-18T23:57:35.599Z,76.05
